sensor_id;sensor_type;location;lat;lon;timestamp;temperature;humidity
16625;DHT22;8426;48.496;9.098;2023-05-07T00:02:21;12.30;99.90
16625;DHT22;8426;48.496;9.098;2023-05-07T00:07:26;12.20;99.90
16625;DHT22;8426;48.496;9.098;2023-05-07T00:12:31;12.10;99.90
16625;DHT22;8426;48.496;9.098;2023-05-07T00:17:37;12.00;99.90
16625;DHT22;8426;48.496;9.098;2023-05-07T00:22:41;11.90;99.90
16625;DHT22;8426;48.496;9.098;2023-05-07T00:27:45;11.80;99.90
16625;DHT22;8426;48.496;9.098;2023-05-07T00:32:48;11.80;99.90
16625;DHT22;8426;48.496;9.098;2023-05-07T00:37:55;11.80;99.90
16625;DHT22;8426;48.496;9.098;2023-05-07T00:42:58;11.80;99.90
16625;DHT22;8426;48.496;9.098;2023-05-07T00:48:02;11.80;99.90
16625;DHT22;8426;48.496;9.098;2023-05-07T00:53:07;11.90;99.90
16625;DHT22;8426;48.496;9.098;2023-05-07T00:58:12;11.80;99.90
16625;DHT22;8426;48.496;9.098;2023-05-07T01:03:15;11.80;99.90
16625;DHT22;8426;48.496;9.098;2023-05-07T01:08:21;11.70;99.90
16625;DHT22;8426;48.496;9.098;2023-05-07T01:13:27;11.70;99.90
16625;DHT22;8426;48.496;9.098;2023-05-07T01:18:32;11.50;99.90
16625;DHT22;8426;48.496;9.098;2023-05-07T01:23:38;11.40;99.90
16625;DHT22;8426;48.496;9.098;2023-05-07T01:28:42;11.20;99.90
16625;DHT22;8426;48.496;9.098;2023-05-07T01:33:46;11.20;99.90
16625;DHT22;8426;48.496;9.098;2023-05-07T01:38:53;11.10;99.90
16625;DHT22;8426;48.496;9.098;2023-05-07T01:43:58;11.10;99.90
16625;DHT22;8426;48.496;9.098;2023-05-07T01:49:03;11.00;99.90
16625;DHT22;8426;48.496;9.098;2023-05-07T01:54:08;11.00;99.90
16625;DHT22;8426;48.496;9.098;2023-05-07T01:59:11;10.90;99.90
16625;DHT22;8426;48.496;9.098;2023-05-07T02:04:15;10.80;99.90
16625;DHT22;8426;48.496;9.098;2023-05-07T02:09:23;10.70;99.90
16625;DHT22;8426;48.496;9.098;2023-05-07T02:14:26;10.60;99.90
16625;DHT22;8426;48.496;9.098;2023-05-07T02:19:30;10.70;99.90
16625;DHT22;8426;48.496;9.098;2023-05-07T02:24:35;10.70;99.90
16625;DHT22;8426;48.496;9.098;2023-05-07T02:29:38;10.70;99.90
16625;DHT22;8426;48.496;9.098;2023-05-07T02:34:42;10.60;99.90
16625;DHT22;8426;48.496;9.098;2023-05-07T02:39:46;10.50;99.90
16625;DHT22;8426;48.496;9.098;2023-05-07T02:44:50;10.50;99.90
16625;DHT22;8426;48.496;9.098;2023-05-07T02:49:55;10.50;99.90
16625;DHT22;8426;48.496;9.098;2023-05-07T02:55:00;10.40;99.90
16625;DHT22;8426;48.496;9.098;2023-05-07T03:00:12;10.30;99.90
16625;DHT22;8426;48.496;9.098;2023-05-07T03:05:15;10.30;99.90
16625;DHT22;8426;48.496;9.098;2023-05-07T03:10:21;10.20;99.90
16625;DHT22;8426;48.496;9.098;2023-05-07T03:15:24;10.10;99.90
16625;DHT22;8426;48.496;9.098;2023-05-07T03:20:28;10.00;99.90
16625;DHT22;8426;48.496;9.098;2023-05-07T03:25:33;9.90;99.90
16625;DHT22;8426;48.496;9.098;2023-05-07T03:30:36;9.90;99.90
16625;DHT22;8426;48.496;9.098;2023-05-07T03:35:41;9.80;99.90
16625;DHT22;8426;48.496;9.098;2023-05-07T03:40:45;9.70;99.90
16625;DHT22;8426;48.496;9.098;2023-05-07T03:45:48;9.60;99.90
16625;DHT22;8426;48.496;9.098;2023-05-07T03:50:52;9.50;99.90
16625;DHT22;8426;48.496;9.098;2023-05-07T03:55:56;9.50;99.90
16625;DHT22;8426;48.496;9.098;2023-05-07T04:01:00;9.40;99.90
16625;DHT22;8426;48.496;9.098;2023-05-07T04:06:03;9.30;99.90
16625;DHT22;8426;48.496;9.098;2023-05-07T04:11:08;9.40;99.90
16625;DHT22;8426;48.496;9.098;2023-05-07T04:16:11;9.40;99.90
16625;DHT22;8426;48.496;9.098;2023-05-07T04:21:15;9.50;99.90
16625;DHT22;8426;48.496;9.098;2023-05-07T04:26:20;9.60;99.90
16625;DHT22;8426;48.496;9.098;2023-05-07T04:31:25;9.60;99.90
16625;DHT22;8426;48.496;9.098;2023-05-07T04:36:28;9.70;99.90
16625;DHT22;8426;48.496;9.098;2023-05-07T04:41:33;9.80;99.90
16625;DHT22;8426;48.496;9.098;2023-05-07T04:46:38;9.80;99.90
16625;DHT22;8426;48.496;9.098;2023-05-07T04:51:41;10.10;99.90
16625;DHT22;8426;48.496;9.098;2023-05-07T04:56:47;10.30;99.90
16625;DHT22;8426;48.496;9.098;2023-05-07T05:01:50;10.50;99.90
16625;DHT22;8426;48.496;9.098;2023-05-07T05:06:54;10.70;99.90
16625;DHT22;8426;48.496;9.098;2023-05-07T05:11:59;11.00;99.90
16625;DHT22;8426;48.496;9.098;2023-05-07T05:17:03;11.30;99.90
16625;DHT22;8426;48.496;9.098;2023-05-07T05:22:06;11.60;99.90
16625;DHT22;8426;48.496;9.098;2023-05-07T05:27:11;12.00;99.90
16625;DHT22;8426;48.496;9.098;2023-05-07T05:32:15;12.40;99.90
16625;DHT22;8426;48.496;9.098;2023-05-07T05:37:25;12.70;99.90
16625;DHT22;8426;48.496;9.098;2023-05-07T05:42:29;13.10;99.90
16625;DHT22;8426;48.496;9.098;2023-05-07T05:47:33;13.50;99.90
16625;DHT22;8426;48.496;9.098;2023-05-07T05:52:37;13.80;99.90
16625;DHT22;8426;48.496;9.098;2023-05-07T05:57:42;14.20;99.90
16625;DHT22;8426;48.496;9.098;2023-05-07T06:02:46;14.60;99.90
16625;DHT22;8426;48.496;9.098;2023-05-07T06:07:49;16.00;99.90
16625;DHT22;8426;48.496;9.098;2023-05-07T06:12:57;18.60;99.90
16625;DHT22;8426;48.496;9.098;2023-05-07T06:18:00;20.00;99.90
16625;DHT22;8426;48.496;9.098;2023-05-07T06:23:04;20.30;99.90
16625;DHT22;8426;48.496;9.098;2023-05-07T06:28:09;21.20;99.90
16625;DHT22;8426;48.496;9.098;2023-05-07T06:33:14;22.70;99.90
16625;DHT22;8426;48.496;9.098;2023-05-07T06:38:18;23.30;99.90
16625;DHT22;8426;48.496;9.098;2023-05-07T06:43:23;23.70;99.90
16625;DHT22;8426;48.496;9.098;2023-05-07T06:48:26;23.60;99.90
16625;DHT22;8426;48.496;9.098;2023-05-07T06:53:31;23.10;99.90
16625;DHT22;8426;48.496;9.098;2023-05-07T06:58:36;22.10;99.90
16625;DHT22;8426;48.496;9.098;2023-05-07T07:03:40;21.50;99.90
16625;DHT22;8426;48.496;9.098;2023-05-07T07:08:43;22.20;99.90
16625;DHT22;8426;48.496;9.098;2023-05-07T07:13:48;25.00;99.90
16625;DHT22;8426;48.496;9.098;2023-05-07T07:18:52;28.00;99.90
16625;DHT22;8426;48.496;9.098;2023-05-07T07:23:56;29.00;99.90
16625;DHT22;8426;48.496;9.098;2023-05-07T07:29:00;29.00;98.20
16625;DHT22;8426;48.496;9.098;2023-05-07T07:34:05;29.50;98.10
16625;DHT22;8426;48.496;9.098;2023-05-07T07:39:08;29.30;96.80
16625;DHT22;8426;48.496;9.098;2023-05-07T07:44:13;27.30;98.90
16625;DHT22;8426;48.496;9.098;2023-05-07T07:49:17;25.70;99.90
16625;DHT22;8426;48.496;9.098;2023-05-07T07:54:21;23.40;99.90
16625;DHT22;8426;48.496;9.098;2023-05-07T07:59:27;22.00;99.90
16625;DHT22;8426;48.496;9.098;2023-05-07T08:04:34;21.00;99.90
16625;DHT22;8426;48.496;9.098;2023-05-07T08:09:42;20.90;99.90
16625;DHT22;8426;48.496;9.098;2023-05-07T08:14:47;20.00;99.90
16625;DHT22;8426;48.496;9.098;2023-05-07T08:19:55;20.00;99.90
16625;DHT22;8426;48.496;9.098;2023-05-07T08:25:03;20.40;99.90
16625;DHT22;8426;48.496;9.098;2023-05-07T08:30:19;20.50;99.90
16625;DHT22;8426;48.496;9.098;2023-05-07T08:35:28;20.90;99.90
16625;DHT22;8426;48.496;9.098;2023-05-07T08:40:40;20.80;99.90
16625;DHT22;8426;48.496;9.098;2023-05-07T08:45:49;20.50;99.90
16625;DHT22;8426;48.496;9.098;2023-05-07T08:50:58;22.20;99.90
16625;DHT22;8426;48.496;9.098;2023-05-07T08:56:06;24.40;99.90
16625;DHT22;8426;48.496;9.098;2023-05-07T09:01:14;26.70;99.90
16625;DHT22;8426;48.496;9.098;2023-05-07T09:06:26;27.50;99.90
16625;DHT22;8426;48.496;9.098;2023-05-07T09:11:34;28.10;99.90
16625;DHT22;8426;48.496;9.098;2023-05-07T09:16:48;28.60;98.80
16625;DHT22;8426;48.496;9.098;2023-05-07T09:21:58;29.30;98.40
16625;DHT22;8426;48.496;9.098;2023-05-07T09:27:08;28.60;99.80
16625;DHT22;8426;48.496;9.098;2023-05-07T09:32:24;28.70;99.40
16625;DHT22;8426;48.496;9.098;2023-05-07T09:37:36;28.20;98.20
16625;DHT22;8426;48.496;9.098;2023-05-07T09:42:48;27.60;99.30
16625;DHT22;8426;48.496;9.098;2023-05-07T09:48:01;28.10;99.30
16625;DHT22;8426;48.496;9.098;2023-05-07T09:53:12;28.10;99.90
16625;DHT22;8426;48.496;9.098;2023-05-07T09:58:19;27.70;99.90
16625;DHT22;8426;48.496;9.098;2023-05-07T10:03:27;26.80;99.40
16625;DHT22;8426;48.496;9.098;2023-05-07T10:08:36;27.00;99.80
16625;DHT22;8426;48.496;9.098;2023-05-07T10:13:40;27.10;99.90
16625;DHT22;8426;48.496;9.098;2023-05-07T10:18:46;26.50;99.90
16625;DHT22;8426;48.496;9.098;2023-05-07T10:23:53;26.30;99.90
16625;DHT22;8426;48.496;9.098;2023-05-07T10:29:05;26.30;99.90
16625;DHT22;8426;48.496;9.098;2023-05-07T10:34:21;25.10;99.90
16625;DHT22;8426;48.496;9.098;2023-05-07T10:39:27;25.60;99.90
16625;DHT22;8426;48.496;9.098;2023-05-07T10:44:30;25.80;99.90
16625;DHT22;8426;48.496;9.098;2023-05-07T10:49:35;25.90;99.90
16625;DHT22;8426;48.496;9.098;2023-05-07T10:54:39;25.90;99.90
16625;DHT22;8426;48.496;9.098;2023-05-07T10:59:42;25.90;99.90
16625;DHT22;8426;48.496;9.098;2023-05-07T11:10:50;25.90;99.90
16625;DHT22;8426;48.496;9.098;2023-05-07T11:15:54;26.00;99.90
16625;DHT22;8426;48.496;9.098;2023-05-07T11:20:59;26.50;99.90
16625;DHT22;8426;48.496;9.098;2023-05-07T11:26:04;27.00;99.90
16625;DHT22;8426;48.496;9.098;2023-05-07T11:31:09;26.10;99.50
16625;DHT22;8426;48.496;9.098;2023-05-07T11:36:16;25.30;99.80
16625;DHT22;8426;48.496;9.098;2023-05-07T11:41:21;24.60;99.90
16625;DHT22;8426;48.496;9.098;2023-05-07T11:46:24;24.20;99.90
16625;DHT22;8426;48.496;9.098;2023-05-07T11:51:30;24.10;99.90
16625;DHT22;8426;48.496;9.098;2023-05-07T11:56:34;23.90;99.90
16625;DHT22;8426;48.496;9.098;2023-05-07T12:01:38;23.70;99.90
16625;DHT22;8426;48.496;9.098;2023-05-07T12:06:43;23.60;99.90
16625;DHT22;8426;48.496;9.098;2023-05-07T12:11:47;23.30;99.90
16625;DHT22;8426;48.496;9.098;2023-05-07T12:16:50;23.00;99.90
16625;DHT22;8426;48.496;9.098;2023-05-07T12:21:56;22.50;99.90
16625;DHT22;8426;48.496;9.098;2023-05-07T12:27:01;22.30;99.90
16625;DHT22;8426;48.496;9.098;2023-05-07T12:32:07;21.90;99.90
16625;DHT22;8426;48.496;9.098;2023-05-07T12:37:25;21.50;99.90
16625;DHT22;8426;48.496;9.098;2023-05-07T12:42:36;21.20;99.90
16625;DHT22;8426;48.496;9.098;2023-05-07T12:47:44;20.80;99.90
16625;DHT22;8426;48.496;9.098;2023-05-07T12:52:51;20.30;99.90
16625;DHT22;8426;48.496;9.098;2023-05-07T12:57:55;19.90;99.90
16625;DHT22;8426;48.496;9.098;2023-05-07T13:02:59;19.70;99.90
16625;DHT22;8426;48.496;9.098;2023-05-07T13:08:11;19.20;99.90
16625;DHT22;8426;48.496;9.098;2023-05-07T13:13:36;18.30;99.90
16625;DHT22;8426;48.496;9.098;2023-05-07T13:18:45;17.50;99.90
16625;DHT22;8426;48.496;9.098;2023-05-07T13:23:58;17.00;99.90
16625;DHT22;8426;48.496;9.098;2023-05-07T13:29:05;16.60;99.90
16625;DHT22;8426;48.496;9.098;2023-05-07T13:34:08;16.40;99.90
16625;DHT22;8426;48.496;9.098;2023-05-07T13:39:14;16.40;99.90
16625;DHT22;8426;48.496;9.098;2023-05-07T13:44:28;16.00;99.90
16625;DHT22;8426;48.496;9.098;2023-05-07T13:49:46;15.90;99.90
16625;DHT22;8426;48.496;9.098;2023-05-07T13:55:03;15.60;99.90
16625;DHT22;8426;48.496;9.098;2023-05-07T14:00:09;15.60;99.90
16625;DHT22;8426;48.496;9.098;2023-05-07T14:05:15;15.50;99.90
16625;DHT22;8426;48.496;9.098;2023-05-07T14:10:24;15.30;99.90
16625;DHT22;8426;48.496;9.098;2023-05-07T14:15:32;15.30;99.90
16625;DHT22;8426;48.496;9.098;2023-05-07T14:20:36;15.40;99.90
16625;DHT22;8426;48.496;9.098;2023-05-07T14:25:41;15.00;99.90
16625;DHT22;8426;48.496;9.098;2023-05-07T14:30:46;14.90;99.90
16625;DHT22;8426;48.496;9.098;2023-05-07T14:35:50;15.10;99.90
16625;DHT22;8426;48.496;9.098;2023-05-07T14:40:56;15.30;99.90
16625;DHT22;8426;48.496;9.098;2023-05-07T14:46:02;15.50;99.90
16625;DHT22;8426;48.496;9.098;2023-05-07T14:51:15;15.90;99.90
16625;DHT22;8426;48.496;9.098;2023-05-07T14:56:33;15.90;99.90
16625;DHT22;8426;48.496;9.098;2023-05-07T15:01:40;16.30;99.90
16625;DHT22;8426;48.496;9.098;2023-05-07T15:06:50;16.40;99.90
16625;DHT22;8426;48.496;9.098;2023-05-07T15:11:56;16.50;99.90
16625;DHT22;8426;48.496;9.098;2023-05-07T15:17:06;16.70;99.90
16625;DHT22;8426;48.496;9.098;2023-05-07T15:22:09;16.60;99.90
16625;DHT22;8426;48.496;9.098;2023-05-07T15:27:15;16.90;99.90
16625;DHT22;8426;48.496;9.098;2023-05-07T15:32:22;16.90;99.90
16625;DHT22;8426;48.496;9.098;2023-05-07T15:37:30;17.10;99.90
16625;DHT22;8426;48.496;9.098;2023-05-07T15:42:39;16.80;99.90
16625;DHT22;8426;48.496;9.098;2023-05-07T15:47:42;17.20;99.90
16625;DHT22;8426;48.496;9.098;2023-05-07T15:52:53;17.20;99.90
16625;DHT22;8426;48.496;9.098;2023-05-07T15:58:03;17.20;99.90
16625;DHT22;8426;48.496;9.098;2023-05-07T16:03:07;17.30;99.90
16625;DHT22;8426;48.496;9.098;2023-05-07T16:08:12;17.30;99.90
16625;DHT22;8426;48.496;9.098;2023-05-07T16:13:19;17.30;99.90
16625;DHT22;8426;48.496;9.098;2023-05-07T16:18:23;17.30;99.90
16625;DHT22;8426;48.496;9.098;2023-05-07T16:23:27;17.10;99.90
16625;DHT22;8426;48.496;9.098;2023-05-07T16:28:33;17.10;99.90
16625;DHT22;8426;48.496;9.098;2023-05-07T16:33:38;17.10;99.90
16625;DHT22;8426;48.496;9.098;2023-05-07T16:38:46;17.10;99.90
16625;DHT22;8426;48.496;9.098;2023-05-07T16:44:01;16.90;99.90
16625;DHT22;8426;48.496;9.098;2023-05-07T16:49:06;16.70;99.90
16625;DHT22;8426;48.496;9.098;2023-05-07T16:54:11;16.50;99.90
16625;DHT22;8426;48.496;9.098;2023-05-07T16:59:17;16.40;99.90
16625;DHT22;8426;48.496;9.098;2023-05-07T17:04:21;16.30;99.90
16625;DHT22;8426;48.496;9.098;2023-05-07T17:09:29;16.10;99.90
16625;DHT22;8426;48.496;9.098;2023-05-07T17:14:37;16.00;99.90
16625;DHT22;8426;48.496;9.098;2023-05-07T17:19:42;15.90;99.90
16625;DHT22;8426;48.496;9.098;2023-05-07T17:24:52;15.70;99.90
16625;DHT22;8426;48.496;9.098;2023-05-07T17:29:57;15.70;99.90
16625;DHT22;8426;48.496;9.098;2023-05-07T17:35:01;15.60;99.90
16625;DHT22;8426;48.496;9.098;2023-05-07T17:40:06;15.70;99.90
16625;DHT22;8426;48.496;9.098;2023-05-07T17:45:12;15.60;99.90
16625;DHT22;8426;48.496;9.098;2023-05-07T17:50:18;15.60;99.90
16625;DHT22;8426;48.496;9.098;2023-05-07T17:55:24;15.60;99.90
16625;DHT22;8426;48.496;9.098;2023-05-07T18:00:29;15.60;99.90
16625;DHT22;8426;48.496;9.098;2023-05-07T18:05:35;15.60;99.90
16625;DHT22;8426;48.496;9.098;2023-05-07T18:10:41;15.50;99.90
16625;DHT22;8426;48.496;9.098;2023-05-07T18:15:52;15.40;99.90
16625;DHT22;8426;48.496;9.098;2023-05-07T18:20:56;15.30;99.90
16625;DHT22;8426;48.496;9.098;2023-05-07T18:26:01;15.30;99.90
16625;DHT22;8426;48.496;9.098;2023-05-07T18:31:10;15.10;99.90
16625;DHT22;8426;48.496;9.098;2023-05-07T18:36:15;15.10;99.90
16625;DHT22;8426;48.496;9.098;2023-05-07T18:41:19;14.90;99.90
16625;DHT22;8426;48.496;9.098;2023-05-07T18:46:26;14.90;99.90
16625;DHT22;8426;48.496;9.098;2023-05-07T18:51:31;14.90;99.90
16625;DHT22;8426;48.496;9.098;2023-05-07T18:56:35;14.80;99.90
16625;DHT22;8426;48.496;9.098;2023-05-07T19:01:41;14.70;99.90
16625;DHT22;8426;48.496;9.098;2023-05-07T19:06:47;14.70;99.90
16625;DHT22;8426;48.496;9.098;2023-05-07T19:11:55;14.70;99.90
16625;DHT22;8426;48.496;9.098;2023-05-07T19:17:01;14.60;99.90
16625;DHT22;8426;48.496;9.098;2023-05-07T19:22:04;14.50;99.90
16625;DHT22;8426;48.496;9.098;2023-05-07T19:27:10;14.50;99.90
16625;DHT22;8426;48.496;9.098;2023-05-07T19:32:16;14.50;99.90
16625;DHT22;8426;48.496;9.098;2023-05-07T19:37:23;14.50;99.90
16625;DHT22;8426;48.496;9.098;2023-05-07T19:42:28;14.50;99.90
16625;DHT22;8426;48.496;9.098;2023-05-07T19:47:39;14.40;99.90
16625;DHT22;8426;48.496;9.098;2023-05-07T19:52:44;14.50;99.90
16625;DHT22;8426;48.496;9.098;2023-05-07T19:57:48;14.50;99.90
16625;DHT22;8426;48.496;9.098;2023-05-07T20:02:53;14.40;99.90
16625;DHT22;8426;48.496;9.098;2023-05-07T20:07:56;14.30;99.90
16625;DHT22;8426;48.496;9.098;2023-05-07T20:13:01;14.30;99.90
16625;DHT22;8426;48.496;9.098;2023-05-07T20:18:06;14.30;99.90
16625;DHT22;8426;48.496;9.098;2023-05-07T20:23:11;14.20;99.90
16625;DHT22;8426;48.496;9.098;2023-05-07T20:28:16;14.20;99.90
16625;DHT22;8426;48.496;9.098;2023-05-07T20:33:21;14.10;99.90
16625;DHT22;8426;48.496;9.098;2023-05-07T20:38:24;14.00;99.90
16625;DHT22;8426;48.496;9.098;2023-05-07T20:43:29;13.90;99.90
16625;DHT22;8426;48.496;9.098;2023-05-07T20:48:36;14.00;99.90
16625;DHT22;8426;48.496;9.098;2023-05-07T20:53:39;14.00;99.90
16625;DHT22;8426;48.496;9.098;2023-05-07T20:58:48;14.00;99.90
16625;DHT22;8426;48.496;9.098;2023-05-07T21:03:53;14.00;99.90
16625;DHT22;8426;48.496;9.098;2023-05-07T21:08:57;14.10;99.90
16625;DHT22;8426;48.496;9.098;2023-05-07T21:14:00;14.10;99.90
16625;DHT22;8426;48.496;9.098;2023-05-07T21:19:06;14.10;99.90
16625;DHT22;8426;48.496;9.098;2023-05-07T21:24:10;14.10;99.90
16625;DHT22;8426;48.496;9.098;2023-05-07T21:29:13;14.20;99.90
16625;DHT22;8426;48.496;9.098;2023-05-07T21:34:18;14.20;99.90
16625;DHT22;8426;48.496;9.098;2023-05-07T21:39:21;14.20;99.90
16625;DHT22;8426;48.496;9.098;2023-05-07T21:44:27;14.20;99.90
16625;DHT22;8426;48.496;9.098;2023-05-07T21:49:32;14.20;99.90
16625;DHT22;8426;48.496;9.098;2023-05-07T21:54:35;14.20;99.90
16625;DHT22;8426;48.496;9.098;2023-05-07T21:59:39;14.20;99.90
16625;DHT22;8426;48.496;9.098;2023-05-07T22:04:44;14.20;99.90
16625;DHT22;8426;48.496;9.098;2023-05-07T22:09:48;14.20;99.90
16625;DHT22;8426;48.496;9.098;2023-05-07T22:14:51;14.20;99.90
16625;DHT22;8426;48.496;9.098;2023-05-07T22:19:56;14.10;99.90
16625;DHT22;8426;48.496;9.098;2023-05-07T22:25:03;14.10;99.90
16625;DHT22;8426;48.496;9.098;2023-05-07T22:30:08;14.10;99.90
16625;DHT22;8426;48.496;9.098;2023-05-07T22:35:13;14.10;99.90
16625;DHT22;8426;48.496;9.098;2023-05-07T22:40:21;14.10;99.90
16625;DHT22;8426;48.496;9.098;2023-05-07T22:45:25;14.00;99.90
16625;DHT22;8426;48.496;9.098;2023-05-07T22:50:30;14.00;99.90
16625;DHT22;8426;48.496;9.098;2023-05-07T22:55:33;14.00;99.90
16625;DHT22;8426;48.496;9.098;2023-05-07T23:00:41;14.00;99.90
16625;DHT22;8426;48.496;9.098;2023-05-07T23:05:46;14.00;99.90
16625;DHT22;8426;48.496;9.098;2023-05-07T23:10:50;14.00;99.90
16625;DHT22;8426;48.496;9.098;2023-05-07T23:15:53;13.90;99.90
16625;DHT22;8426;48.496;9.098;2023-05-07T23:20:58;14.00;99.90
16625;DHT22;8426;48.496;9.098;2023-05-07T23:26:01;13.90;99.90
16625;DHT22;8426;48.496;9.098;2023-05-07T23:31:06;13.90;99.90
16625;DHT22;8426;48.496;9.098;2023-05-07T23:36:11;13.90;99.90
16625;DHT22;8426;48.496;9.098;2023-05-07T23:41:14;13.90;99.90
16625;DHT22;8426;48.496;9.098;2023-05-07T23:46:18;13.90;99.90
16625;DHT22;8426;48.496;9.098;2023-05-07T23:51:23;13.90;99.90
16625;DHT22;8426;48.496;9.098;2023-05-07T23:56:27;13.80;99.90
